sensor_id;sensor_type;location;lat;lon;timestamp;temperature;humidity
64209;DHT22;50527;52.414;13.226;2023-01-30T00:00:13;3.00;91.10
64209;DHT22;50527;52.414;13.226;2023-01-30T00:02:39;3.00;91.60
64209;DHT22;50527;52.414;13.226;2023-01-30T00:05:05;3.00;91.30
64209;DHT22;50527;52.414;13.226;2023-01-30T00:07:30;3.10;91.40
64209;DHT22;50527;52.414;13.226;2023-01-30T00:09:56;3.00;90.80
64209;DHT22;50527;52.414;13.226;2023-01-30T00:12:21;3.10;90.90
64209;DHT22;50527;52.414;13.226;2023-01-30T00:14:47;3.00;91.00
64209;DHT22;50527;52.414;13.226;2023-01-30T00:17:12;2.90;90.60
64209;DHT22;50527;52.414;13.226;2023-01-30T00:19:37;2.90;91.30
64209;DHT22;50527;52.414;13.226;2023-01-30T00:22:03;2.90;90.80
64209;DHT22;50527;52.414;13.226;2023-01-30T00:24:28;2.80;90.60
64209;DHT22;50527;52.414;13.226;2023-01-30T00:26:54;2.90;91.00
64209;DHT22;50527;52.414;13.226;2023-01-30T00:29:20;2.90;91.30
64209;DHT22;50527;52.414;13.226;2023-01-30T00:31:45;2.90;90.60
64209;DHT22;50527;52.414;13.226;2023-01-30T00:34:10;2.90;91.60
64209;DHT22;50527;52.414;13.226;2023-01-30T00:36:36;2.90;91.00
64209;DHT22;50527;52.414;13.226;2023-01-30T00:39:01;3.00;91.10
64209;DHT22;50527;52.414;13.226;2023-01-30T00:41:27;2.90;91.00
64209;DHT22;50527;52.414;13.226;2023-01-30T00:44:12;3.00;90.90
64209;DHT22;50527;52.414;13.226;2023-01-30T00:46:56;3.00;90.60
64209;DHT22;50527;52.414;13.226;2023-01-30T00:49:31;2.90;90.50
64209;DHT22;50527;52.414;13.226;2023-01-30T00:51:57;2.90;90.90
64209;DHT22;50527;52.414;13.226;2023-01-30T00:54:23;2.80;90.80
64209;DHT22;50527;52.414;13.226;2023-01-30T00:56:48;2.90;91.00
64209;DHT22;50527;52.414;13.226;2023-01-30T00:59:14;3.00;91.40
64209;DHT22;50527;52.414;13.226;2023-01-30T01:01:39;2.90;90.90
64209;DHT22;50527;52.414;13.226;2023-01-30T01:04:05;2.80;90.90
64209;DHT22;50527;52.414;13.226;2023-01-30T01:06:33;2.80;90.80
64209;DHT22;50527;52.414;13.226;2023-01-30T01:08:58;2.90;91.40
64209;DHT22;50527;52.414;13.226;2023-01-30T01:11:24;2.80;91.00
64209;DHT22;50527;52.414;13.226;2023-01-30T01:13:51;2.90;90.70
64209;DHT22;50527;52.414;13.226;2023-01-30T01:16:17;2.90;90.80
64209;DHT22;50527;52.414;13.226;2023-01-30T01:18:42;2.90;91.00
64209;DHT22;50527;52.414;13.226;2023-01-30T01:21:08;2.90;90.90
64209;DHT22;50527;52.414;13.226;2023-01-30T01:23:33;2.90;91.30
64209;DHT22;50527;52.414;13.226;2023-01-30T01:26:02;2.80;90.80
64209;DHT22;50527;52.414;13.226;2023-01-30T01:28:27;2.90;91.10
64209;DHT22;50527;52.414;13.226;2023-01-30T01:30:53;2.90;91.00
64209;DHT22;50527;52.414;13.226;2023-01-30T01:33:18;2.80;90.90
64209;DHT22;50527;52.414;13.226;2023-01-30T01:35:44;2.80;90.80
64209;DHT22;50527;52.414;13.226;2023-01-30T01:38:11;2.80;90.80
64209;DHT22;50527;52.414;13.226;2023-01-30T01:40:37;2.90;91.10
64209;DHT22;50527;52.414;13.226;2023-01-30T01:43:23;2.90;90.90
64209;DHT22;50527;52.414;13.226;2023-01-30T01:45:52;2.80;91.10
64209;DHT22;50527;52.414;13.226;2023-01-30T01:48:48;2.90;91.40
64209;DHT22;50527;52.414;13.226;2023-01-30T01:51:40;2.90;91.10
64209;DHT22;50527;52.414;13.226;2023-01-30T01:54:13;2.90;90.80
64209;DHT22;50527;52.414;13.226;2023-01-30T01:56:43;2.90;90.90
64209;DHT22;50527;52.414;13.226;2023-01-30T01:59:25;2.90;91.40
64209;DHT22;50527;52.414;13.226;2023-01-30T02:01:54;2.90;90.60
64209;DHT22;50527;52.414;13.226;2023-01-30T02:04:21;3.00;90.90
64209;DHT22;50527;52.414;13.226;2023-01-30T02:07:10;2.90;91.20
64209;DHT22;50527;52.414;13.226;2023-01-30T02:09:36;2.90;91.60
64209;DHT22;50527;52.414;13.226;2023-01-30T02:12:02;2.90;91.70
64209;DHT22;50527;52.414;13.226;2023-01-30T02:14:30;2.80;92.50
64209;DHT22;50527;52.414;13.226;2023-01-30T02:16:56;2.80;93.60
64209;DHT22;50527;52.414;13.226;2023-01-30T02:19:50;2.80;94.50
64209;DHT22;50527;52.414;13.226;2023-01-30T02:28:12;2.80;95.20
64209;DHT22;50527;52.414;13.226;2023-01-30T02:31:04;2.80;94.70
64209;DHT22;50527;52.414;13.226;2023-01-30T02:36:45;2.70;94.00
64209;DHT22;50527;52.414;13.226;2023-01-30T02:42:22;2.80;93.90
64209;DHT22;50527;52.414;13.226;2023-01-30T02:45:25;2.80;94.40
64209;DHT22;50527;52.414;13.226;2023-01-30T02:48:01;2.80;94.80
64209;DHT22;50527;52.414;13.226;2023-01-30T02:50:58;2.80;95.20
64209;DHT22;50527;52.414;13.226;2023-01-30T02:53:24;2.80;96.20
64209;DHT22;50527;52.414;13.226;2023-01-30T02:55:50;2.70;96.70
64209;DHT22;50527;52.414;13.226;2023-01-30T02:58:18;2.70;97.50
64209;DHT22;50527;52.414;13.226;2023-01-30T03:01:09;2.70;97.80
64209;DHT22;50527;52.414;13.226;2023-01-30T03:04:10;2.80;98.10
64209;DHT22;50527;52.414;13.226;2023-01-30T03:06:55;2.70;97.50
64209;DHT22;50527;52.414;13.226;2023-01-30T03:09:34;2.60;98.10
64209;DHT22;50527;52.414;13.226;2023-01-30T03:12:10;2.70;99.00
64209;DHT22;50527;52.414;13.226;2023-01-30T03:14:48;2.80;98.00
64209;DHT22;50527;52.414;13.226;2023-01-30T03:17:17;2.80;97.90
64209;DHT22;50527;52.414;13.226;2023-01-30T03:19:45;2.80;97.50
64209;DHT22;50527;52.414;13.226;2023-01-30T03:22:10;2.80;96.90
64209;DHT22;50527;52.414;13.226;2023-01-30T03:24:36;2.80;97.20
64209;DHT22;50527;52.414;13.226;2023-01-30T03:27:06;2.80;97.60
64209;DHT22;50527;52.414;13.226;2023-01-30T03:29:33;2.90;98.10
64209;DHT22;50527;52.414;13.226;2023-01-30T03:31:58;2.80;97.40
64209;DHT22;50527;52.414;13.226;2023-01-30T03:34:24;2.90;97.50
64209;DHT22;50527;52.414;13.226;2023-01-30T03:36:50;2.90;97.20
64209;DHT22;50527;52.414;13.226;2023-01-30T03:39:15;2.90;96.80
64209;DHT22;50527;52.414;13.226;2023-01-30T03:41:41;2.90;96.90
64209;DHT22;50527;52.414;13.226;2023-01-30T03:44:06;2.90;97.70
64209;DHT22;50527;52.414;13.226;2023-01-30T03:46:32;3.00;97.40
64209;DHT22;50527;52.414;13.226;2023-01-30T03:48:57;3.00;96.70
64209;DHT22;50527;52.414;13.226;2023-01-30T03:51:23;3.00;96.90
64209;DHT22;50527;52.414;13.226;2023-01-30T03:53:48;3.00;96.70
64209;DHT22;50527;52.414;13.226;2023-01-30T03:56:14;3.00;97.30
64209;DHT22;50527;52.414;13.226;2023-01-30T03:58:39;3.00;98.90
64209;DHT22;50527;52.414;13.226;2023-01-30T04:01:05;3.00;99.70
64209;DHT22;50527;52.414;13.226;2023-01-30T04:03:31;3.00;99.90
64209;DHT22;50527;52.414;13.226;2023-01-30T04:05:56;3.00;99.90
64209;DHT22;50527;52.414;13.226;2023-01-30T04:08:22;2.90;99.70
64209;DHT22;50527;52.414;13.226;2023-01-30T04:10:47;3.00;99.90
64209;DHT22;50527;52.414;13.226;2023-01-30T04:13:13;3.00;99.90
64209;DHT22;50527;52.414;13.226;2023-01-30T04:15:38;3.10;99.70
64209;DHT22;50527;52.414;13.226;2023-01-30T04:18:04;3.10;99.50
64209;DHT22;50527;52.414;13.226;2023-01-30T04:20:29;3.20;99.30
64209;DHT22;50527;52.414;13.226;2023-01-30T04:22:55;3.20;99.40
64209;DHT22;50527;52.414;13.226;2023-01-30T04:25:21;3.20;98.70
64209;DHT22;50527;52.414;13.226;2023-01-30T04:27:46;3.20;98.10
64209;DHT22;50527;52.414;13.226;2023-01-30T04:30:12;3.30;97.40
64209;DHT22;50527;52.414;13.226;2023-01-30T04:32:37;3.30;98.00
64209;DHT22;50527;52.414;13.226;2023-01-30T04:35:03;3.30;97.30
64209;DHT22;50527;52.414;13.226;2023-01-30T04:37:29;3.40;97.50
64209;DHT22;50527;52.414;13.226;2023-01-30T04:39:54;3.40;97.10
64209;DHT22;50527;52.414;13.226;2023-01-30T04:42:19;3.40;97.40
64209;DHT22;50527;52.414;13.226;2023-01-30T04:44:45;3.50;96.90
64209;DHT22;50527;52.414;13.226;2023-01-30T04:47:10;3.50;96.90
64209;DHT22;50527;52.414;13.226;2023-01-30T04:49:36;3.50;97.30
64209;DHT22;50527;52.414;13.226;2023-01-30T04:52:01;3.50;97.70
64209;DHT22;50527;52.414;13.226;2023-01-30T04:54:27;3.50;97.60
64209;DHT22;50527;52.414;13.226;2023-01-30T04:56:52;3.60;97.70
64209;DHT22;50527;52.414;13.226;2023-01-30T04:59:18;3.60;97.20
64209;DHT22;50527;52.414;13.226;2023-01-30T05:01:43;3.70;97.50
64209;DHT22;50527;52.414;13.226;2023-01-30T05:04:09;3.60;97.50
64209;DHT22;50527;52.414;13.226;2023-01-30T05:06:34;3.60;98.20
64209;DHT22;50527;52.414;13.226;2023-01-30T05:09:01;3.50;99.00
64209;DHT22;50527;52.414;13.226;2023-01-30T05:11:28;3.50;99.50
64209;DHT22;50527;52.414;13.226;2023-01-30T05:13:54;3.40;99.90
64209;DHT22;50527;52.414;13.226;2023-01-30T05:16:20;3.40;99.90
64209;DHT22;50527;52.414;13.226;2023-01-30T05:18:47;3.40;99.90
64209;DHT22;50527;52.414;13.226;2023-01-30T05:21:15;3.30;99.90
64209;DHT22;50527;52.414;13.226;2023-01-30T05:23:41;3.20;99.90
64209;DHT22;50527;52.414;13.226;2023-01-30T05:26:06;3.30;99.90
64209;DHT22;50527;52.414;13.226;2023-01-30T05:28:33;3.20;99.90
64209;DHT22;50527;52.414;13.226;2023-01-30T05:31:10;3.20;99.90
64209;DHT22;50527;52.414;13.226;2023-01-30T05:33:36;3.20;99.90
64209;DHT22;50527;52.414;13.226;2023-01-30T05:36:02;3.20;99.90
64209;DHT22;50527;52.414;13.226;2023-01-30T05:38:28;3.20;99.90
64209;DHT22;50527;52.414;13.226;2023-01-30T05:41:19;3.20;99.90
64209;DHT22;50527;52.414;13.226;2023-01-30T05:43:49;3.10;99.90
64209;DHT22;50527;52.414;13.226;2023-01-30T05:46:15;3.10;99.90
64209;DHT22;50527;52.414;13.226;2023-01-30T05:48:40;3.20;99.90
64209;DHT22;50527;52.414;13.226;2023-01-30T05:51:06;3.20;99.90
64209;DHT22;50527;52.414;13.226;2023-01-30T05:53:32;3.20;99.90
64209;DHT22;50527;52.414;13.226;2023-01-30T05:56:04;3.20;99.90
64209;DHT22;50527;52.414;13.226;2023-01-30T05:58:31;3.30;99.90
64209;DHT22;50527;52.414;13.226;2023-01-30T06:01:05;3.30;99.90
64209;DHT22;50527;52.414;13.226;2023-01-30T06:03:31;3.30;99.90
64209;DHT22;50527;52.414;13.226;2023-01-30T06:05:56;3.30;99.90
64209;DHT22;50527;52.414;13.226;2023-01-30T06:08:22;3.20;99.90
64209;DHT22;50527;52.414;13.226;2023-01-30T06:10:48;3.30;99.90
64209;DHT22;50527;52.414;13.226;2023-01-30T06:13:14;3.30;99.90
64209;DHT22;50527;52.414;13.226;2023-01-30T06:15:39;3.40;99.90
64209;DHT22;50527;52.414;13.226;2023-01-30T06:18:04;3.40;99.90
64209;DHT22;50527;52.414;13.226;2023-01-30T06:20:30;3.30;99.90
64209;DHT22;50527;52.414;13.226;2023-01-30T06:22:55;3.30;99.90
64209;DHT22;50527;52.414;13.226;2023-01-30T06:25:21;3.40;99.90
64209;DHT22;50527;52.414;13.226;2023-01-30T06:27:46;3.40;99.90
64209;DHT22;50527;52.414;13.226;2023-01-30T06:30:12;3.40;99.90
64209;DHT22;50527;52.414;13.226;2023-01-30T06:32:38;3.50;99.90
64209;DHT22;50527;52.414;13.226;2023-01-30T06:35:04;3.50;99.90
64209;DHT22;50527;52.414;13.226;2023-01-30T06:37:29;3.60;99.90
64209;DHT22;50527;52.414;13.226;2023-01-30T06:39:55;3.60;99.90
64209;DHT22;50527;52.414;13.226;2023-01-30T06:42:20;3.60;99.90
64209;DHT22;50527;52.414;13.226;2023-01-30T06:44:45;3.50;99.90
64209;DHT22;50527;52.414;13.226;2023-01-30T06:47:11;3.70;99.90
64209;DHT22;50527;52.414;13.226;2023-01-30T06:49:37;3.60;99.90
64209;DHT22;50527;52.414;13.226;2023-01-30T06:52:02;3.70;99.90
64209;DHT22;50527;52.414;13.226;2023-01-30T06:54:28;3.70;99.90
64209;DHT22;50527;52.414;13.226;2023-01-30T06:56:53;3.70;99.90
64209;DHT22;50527;52.414;13.226;2023-01-30T06:59:19;3.70;99.90
64209;DHT22;50527;52.414;13.226;2023-01-30T07:01:44;3.70;99.90
64209;DHT22;50527;52.414;13.226;2023-01-30T07:04:10;3.80;99.90
64209;DHT22;50527;52.414;13.226;2023-01-30T07:06:35;3.90;99.90
64209;DHT22;50527;52.414;13.226;2023-01-30T07:09:00;3.90;99.90
64209;DHT22;50527;52.414;13.226;2023-01-30T07:11:26;3.90;99.90
64209;DHT22;50527;52.414;13.226;2023-01-30T07:13:51;4.00;99.90
64209;DHT22;50527;52.414;13.226;2023-01-30T07:16:17;4.10;99.90
64209;DHT22;50527;52.414;13.226;2023-01-30T07:18:43;4.10;99.90
64209;DHT22;50527;52.414;13.226;2023-01-30T07:21:08;4.20;99.90
64209;DHT22;50527;52.414;13.226;2023-01-30T07:23:34;4.20;99.90
64209;DHT22;50527;52.414;13.226;2023-01-30T07:26:03;4.20;99.90
64209;DHT22;50527;52.414;13.226;2023-01-30T07:28:29;4.10;99.90
64209;DHT22;50527;52.414;13.226;2023-01-30T07:30:58;4.20;99.90
64209;DHT22;50527;52.414;13.226;2023-01-30T07:33:24;4.30;99.90
64209;DHT22;50527;52.414;13.226;2023-01-30T07:35:49;4.30;99.90
64209;DHT22;50527;52.414;13.226;2023-01-30T07:38:15;4.30;99.90
64209;DHT22;50527;52.414;13.226;2023-01-30T07:40:40;4.30;99.90
64209;DHT22;50527;52.414;13.226;2023-01-30T07:43:11;4.30;99.90
64209;DHT22;50527;52.414;13.226;2023-01-30T07:45:45;4.30;99.90
64209;DHT22;50527;52.414;13.226;2023-01-30T07:48:13;4.30;99.90
64209;DHT22;50527;52.414;13.226;2023-01-30T07:50:39;4.30;99.90
64209;DHT22;50527;52.414;13.226;2023-01-30T07:53:06;4.30;99.90
64209;DHT22;50527;52.414;13.226;2023-01-30T07:55:33;4.30;99.90
64209;DHT22;50527;52.414;13.226;2023-01-30T07:57:58;4.40;99.90
64209;DHT22;50527;52.414;13.226;2023-01-30T08:00:24;4.40;99.90
64209;DHT22;50527;52.414;13.226;2023-01-30T08:02:50;4.40;99.90
64209;DHT22;50527;52.414;13.226;2023-01-30T08:05:15;4.50;99.90
64209;DHT22;50527;52.414;13.226;2023-01-30T08:07:41;4.60;99.90
64209;DHT22;50527;52.414;13.226;2023-01-30T08:10:07;4.60;99.90
64209;DHT22;50527;52.414;13.226;2023-01-30T08:12:33;4.70;99.90
64209;DHT22;50527;52.414;13.226;2023-01-30T08:14:58;4.80;99.90
64209;DHT22;50527;52.414;13.226;2023-01-30T08:17:24;4.90;99.90
64209;DHT22;50527;52.414;13.226;2023-01-30T08:19:49;5.00;99.90
64209;DHT22;50527;52.414;13.226;2023-01-30T08:22:15;5.00;99.90
64209;DHT22;50527;52.414;13.226;2023-01-30T08:24:40;5.10;99.90
64209;DHT22;50527;52.414;13.226;2023-01-30T08:27:06;5.10;99.90
64209;DHT22;50527;52.414;13.226;2023-01-30T08:29:31;5.10;99.90
64209;DHT22;50527;52.414;13.226;2023-01-30T08:31:58;5.20;99.90
64209;DHT22;50527;52.414;13.226;2023-01-30T08:34:24;5.20;99.90
64209;DHT22;50527;52.414;13.226;2023-01-30T08:36:49;5.20;99.90
64209;DHT22;50527;52.414;13.226;2023-01-30T08:39:15;5.30;99.90
64209;DHT22;50527;52.414;13.226;2023-01-30T08:41:40;5.30;99.90
64209;DHT22;50527;52.414;13.226;2023-01-30T08:44:10;5.30;99.90
64209;DHT22;50527;52.414;13.226;2023-01-30T08:46:36;5.30;99.90
64209;DHT22;50527;52.414;13.226;2023-01-30T08:49:01;5.30;99.90
64209;DHT22;50527;52.414;13.226;2023-01-30T08:51:27;5.30;99.90
64209;DHT22;50527;52.414;13.226;2023-01-30T08:53:52;5.40;99.90
64209;DHT22;50527;52.414;13.226;2023-01-30T08:56:18;5.40;99.90
64209;DHT22;50527;52.414;13.226;2023-01-30T08:58:43;5.50;99.90
64209;DHT22;50527;52.414;13.226;2023-01-30T09:01:11;5.60;99.90
64209;DHT22;50527;52.414;13.226;2023-01-30T09:03:37;5.60;99.90
64209;DHT22;50527;52.414;13.226;2023-01-30T09:06:03;5.60;99.90
64209;DHT22;50527;52.414;13.226;2023-01-30T09:08:28;5.60;99.90
64209;DHT22;50527;52.414;13.226;2023-01-30T09:10:58;5.70;99.90
64209;DHT22;50527;52.414;13.226;2023-01-30T09:13:25;5.70;99.90
64209;DHT22;50527;52.414;13.226;2023-01-30T09:15:50;5.70;99.90
64209;DHT22;50527;52.414;13.226;2023-01-30T09:18:16;5.90;99.90
64209;DHT22;50527;52.414;13.226;2023-01-30T09:20:41;5.90;99.90
64209;DHT22;50527;52.414;13.226;2023-01-30T09:23:07;6.00;99.90
64209;DHT22;50527;52.414;13.226;2023-01-30T09:25:32;6.10;99.90
64209;DHT22;50527;52.414;13.226;2023-01-30T09:27:58;6.10;99.90
64209;DHT22;50527;52.414;13.226;2023-01-30T09:30:24;6.20;99.90
64209;DHT22;50527;52.414;13.226;2023-01-30T09:32:49;6.30;99.90
64209;DHT22;50527;52.414;13.226;2023-01-30T09:35:15;6.30;99.90
64209;DHT22;50527;52.414;13.226;2023-01-30T09:37:48;6.20;99.90
64209;DHT22;50527;52.414;13.226;2023-01-30T09:40:19;6.30;99.90
64209;DHT22;50527;52.414;13.226;2023-01-30T09:51:23;6.50;99.90
64209;DHT22;50527;52.414;13.226;2023-01-30T09:54:14;6.60;99.90
64209;DHT22;50527;52.414;13.226;2023-01-30T09:56:41;6.70;99.50
64209;DHT22;50527;52.414;13.226;2023-01-30T09:59:20;6.70;98.40
64209;DHT22;50527;52.414;13.226;2023-01-30T10:02:00;6.70;98.10
64209;DHT22;50527;52.414;13.226;2023-01-30T10:04:36;6.70;97.50
64209;DHT22;50527;52.414;13.226;2023-01-30T10:09:53;6.70;96.10
64209;DHT22;50527;52.414;13.226;2023-01-30T10:12:43;6.60;95.70
64209;DHT22;50527;52.414;13.226;2023-01-30T10:15:15;6.60;96.90
64209;DHT22;50527;52.414;13.226;2023-01-30T10:22:59;6.90;94.10
64209;DHT22;50527;52.414;13.226;2023-01-30T10:25:46;6.90;93.60
64209;DHT22;50527;52.414;13.226;2023-01-30T10:28:21;6.90;93.90
64209;DHT22;50527;52.414;13.226;2023-01-30T10:30:51;6.80;93.60
64209;DHT22;50527;52.414;13.226;2023-01-30T10:33:21;6.80;93.80
64209;DHT22;50527;52.414;13.226;2023-01-30T10:35:58;6.90;93.60
64209;DHT22;50527;52.414;13.226;2023-01-30T10:38:53;7.00;92.30
64209;DHT22;50527;52.414;13.226;2023-01-30T10:41:31;7.20;92.20
64209;DHT22;50527;52.414;13.226;2023-01-30T10:44:04;7.20;91.50
64209;DHT22;50527;52.414;13.226;2023-01-30T10:46:33;7.10;91.00
64209;DHT22;50527;52.414;13.226;2023-01-30T10:49:21;7.10;91.40
64209;DHT22;50527;52.414;13.226;2023-01-30T10:52:01;7.10;91.70
64209;DHT22;50527;52.414;13.226;2023-01-30T10:54:39;7.10;91.50
64209;DHT22;50527;52.414;13.226;2023-01-30T11:05:17;6.90;92.20
64209;DHT22;50527;52.414;13.226;2023-01-30T11:07:45;6.80;92.70
64209;DHT22;50527;52.414;13.226;2023-01-30T11:10:24;6.80;93.30
64209;DHT22;50527;52.414;13.226;2023-01-30T11:12:54;6.80;93.20
64209;DHT22;50527;52.414;13.226;2023-01-30T11:15:20;6.80;93.30
64209;DHT22;50527;52.414;13.226;2023-01-30T11:17:49;6.80;92.90
64209;DHT22;50527;52.414;13.226;2023-01-30T11:20:17;6.80;93.20
64209;DHT22;50527;52.414;13.226;2023-01-30T11:22:47;6.90;93.40
64209;DHT22;50527;52.414;13.226;2023-01-30T11:25:20;6.90;93.70
64209;DHT22;50527;52.414;13.226;2023-01-30T11:27:59;7.10;93.50
64209;DHT22;50527;52.414;13.226;2023-01-30T11:30:31;7.20;92.90
64209;DHT22;50527;52.414;13.226;2023-01-30T11:33:05;7.20;92.60
64209;DHT22;50527;52.414;13.226;2023-01-30T11:35:41;7.20;92.00
64209;DHT22;50527;52.414;13.226;2023-01-30T11:38:20;7.10;91.60
64209;DHT22;50527;52.414;13.226;2023-01-30T11:40:46;7.10;91.40
64209;DHT22;50527;52.414;13.226;2023-01-30T11:43:12;7.10;91.40
64209;DHT22;50527;52.414;13.226;2023-01-30T11:45:42;7.10;91.30
64209;DHT22;50527;52.414;13.226;2023-01-30T11:48:15;7.30;91.40
64209;DHT22;50527;52.414;13.226;2023-01-30T11:50:45;7.50;90.70
64209;DHT22;50527;52.414;13.226;2023-01-30T11:53:32;7.70;90.10
64209;DHT22;50527;52.414;13.226;2023-01-30T11:56:03;7.90;88.90
64209;DHT22;50527;52.414;13.226;2023-01-30T11:58:32;8.20;87.30
64209;DHT22;50527;52.414;13.226;2023-01-30T12:00:59;8.40;84.80
64209;DHT22;50527;52.414;13.226;2023-01-30T12:03:26;8.30;83.40
64209;DHT22;50527;52.414;13.226;2023-01-30T12:05:54;8.20;84.10
64209;DHT22;50527;52.414;13.226;2023-01-30T12:08:24;8.00;84.90
64209;DHT22;50527;52.414;13.226;2023-01-30T12:10:58;7.90;84.40
64209;DHT22;50527;52.414;13.226;2023-01-30T12:13:39;7.70;85.80
64209;DHT22;50527;52.414;13.226;2023-01-30T12:16:21;7.70;85.90
64209;DHT22;50527;52.414;13.226;2023-01-30T12:19:00;7.80;84.70
64209;DHT22;50527;52.414;13.226;2023-01-30T12:21:39;7.80;83.80
64209;DHT22;50527;52.414;13.226;2023-01-30T12:24:19;7.90;83.10
64209;DHT22;50527;52.414;13.226;2023-01-30T12:27:05;7.90;81.80
64209;DHT22;50527;52.414;13.226;2023-01-30T12:29:42;7.90;81.60
64209;DHT22;50527;52.414;13.226;2023-01-30T12:32:15;7.80;82.30
64209;DHT22;50527;52.414;13.226;2023-01-30T12:34:41;7.90;85.70
64209;DHT22;50527;52.414;13.226;2023-01-30T12:37:39;8.10;86.00
64209;DHT22;50527;52.414;13.226;2023-01-30T12:45:30;8.10;80.70
64209;DHT22;50527;52.414;13.226;2023-01-30T12:48:39;8.10;80.50
64209;DHT22;50527;52.414;13.226;2023-01-30T12:57:14;7.90;79.60
64209;DHT22;50527;52.414;13.226;2023-01-30T13:05:36;8.10;78.80
64209;DHT22;50527;52.414;13.226;2023-01-30T13:08:16;8.10;78.40
64209;DHT22;50527;52.414;13.226;2023-01-30T13:10:51;8.10;78.30
64209;DHT22;50527;52.414;13.226;2023-01-30T13:13:39;7.90;79.00
64209;DHT22;50527;52.414;13.226;2023-01-30T13:16:28;7.70;79.60
64209;DHT22;50527;52.414;13.226;2023-01-30T13:19:11;7.60;79.60
64209;DHT22;50527;52.414;13.226;2023-01-30T13:21:49;7.50;81.70
64209;DHT22;50527;52.414;13.226;2023-01-30T13:26:45;7.40;82.90
64209;DHT22;50527;52.414;13.226;2023-01-30T13:29:25;7.40;82.80
64209;DHT22;50527;52.414;13.226;2023-01-30T13:31:55;7.40;83.20
64209;DHT22;50527;52.414;13.226;2023-01-30T13:34:30;7.50;83.00
64209;DHT22;50527;52.414;13.226;2023-01-30T13:37:10;7.50;83.60
64209;DHT22;50527;52.414;13.226;2023-01-30T13:39:44;7.50;83.60
64209;DHT22;50527;52.414;13.226;2023-01-30T13:42:20;7.50;83.80
64209;DHT22;50527;52.414;13.226;2023-01-30T13:44:50;7.40;84.60
64209;DHT22;50527;52.414;13.226;2023-01-30T13:47:31;7.40;87.70
64209;DHT22;50527;52.414;13.226;2023-01-30T13:53:04;7.10;92.10
64209;DHT22;50527;52.414;13.226;2023-01-30T13:55:50;7.00;93.40
64209;DHT22;50527;52.414;13.226;2023-01-30T14:01:22;6.70;95.10
64209;DHT22;50527;52.414;13.226;2023-01-30T14:03:48;6.70;95.80
64209;DHT22;50527;52.414;13.226;2023-01-30T14:06:34;6.60;96.30
64209;DHT22;50527;52.414;13.226;2023-01-30T14:09:04;6.50;97.90
64209;DHT22;50527;52.414;13.226;2023-01-30T14:11:55;6.40;99.90
64209;DHT22;50527;52.414;13.226;2023-01-30T14:14:25;6.10;99.90
64209;DHT22;50527;52.414;13.226;2023-01-30T14:16:57;5.80;99.90
64209;DHT22;50527;52.414;13.226;2023-01-30T14:19:53;5.50;99.90
64209;DHT22;50527;52.414;13.226;2023-01-30T14:22:32;5.30;99.90
64209;DHT22;50527;52.414;13.226;2023-01-30T14:27:53;5.00;99.90
64209;DHT22;50527;52.414;13.226;2023-01-30T14:31:05;4.90;99.90
64209;DHT22;50527;52.414;13.226;2023-01-30T14:38:27;4.70;99.90
64209;DHT22;50527;52.414;13.226;2023-01-30T14:46:00;4.70;99.90
64209;DHT22;50527;52.414;13.226;2023-01-30T14:51:11;4.70;99.90
64209;DHT22;50527;52.414;13.226;2023-01-30T14:53:51;4.60;99.90
64209;DHT22;50527;52.414;13.226;2023-01-30T14:56:19;4.60;99.90
64209;DHT22;50527;52.414;13.226;2023-01-30T14:58:58;4.70;99.90
64209;DHT22;50527;52.414;13.226;2023-01-30T15:01:25;4.70;99.90
64209;DHT22;50527;52.414;13.226;2023-01-30T15:03:51;4.70;99.90
64209;DHT22;50527;52.414;13.226;2023-01-30T15:06:16;4.70;99.90
64209;DHT22;50527;52.414;13.226;2023-01-30T15:08:45;4.70;99.90
64209;DHT22;50527;52.414;13.226;2023-01-30T15:11:20;4.70;99.90
64209;DHT22;50527;52.414;13.226;2023-01-30T15:13:54;4.70;99.90
64209;DHT22;50527;52.414;13.226;2023-01-30T15:16:55;4.70;99.90
64209;DHT22;50527;52.414;13.226;2023-01-30T15:19:51;4.70;99.90
64209;DHT22;50527;52.414;13.226;2023-01-30T15:22:30;4.80;99.90
64209;DHT22;50527;52.414;13.226;2023-01-30T15:25:09;4.70;99.90
64209;DHT22;50527;52.414;13.226;2023-01-30T15:33:19;4.80;99.90
64209;DHT22;50527;52.414;13.226;2023-01-30T15:35:44;4.90;99.90
64209;DHT22;50527;52.414;13.226;2023-01-30T15:38:25;4.80;99.90
64209;DHT22;50527;52.414;13.226;2023-01-30T15:40:53;4.90;99.90
64209;DHT22;50527;52.414;13.226;2023-01-30T15:43:33;4.90;99.90
64209;DHT22;50527;52.414;13.226;2023-01-30T15:46:07;4.90;99.90
64209;DHT22;50527;52.414;13.226;2023-01-30T15:48:53;4.90;99.90
64209;DHT22;50527;52.414;13.226;2023-01-30T15:51:27;4.90;99.90
64209;DHT22;50527;52.414;13.226;2023-01-30T15:53:54;4.90;99.90
64209;DHT22;50527;52.414;13.226;2023-01-30T15:56:25;4.90;99.90
64209;DHT22;50527;52.414;13.226;2023-01-30T15:58:52;4.90;99.90
64209;DHT22;50527;52.414;13.226;2023-01-30T16:01:20;4.90;99.90
64209;DHT22;50527;52.414;13.226;2023-01-30T16:03:46;4.90;99.90
64209;DHT22;50527;52.414;13.226;2023-01-30T16:06:31;4.80;99.90
64209;DHT22;50527;52.414;13.226;2023-01-30T16:09:21;4.70;99.90
64209;DHT22;50527;52.414;13.226;2023-01-30T16:11:47;4.70;99.90
64209;DHT22;50527;52.414;13.226;2023-01-30T16:14:15;4.80;99.90
64209;DHT22;50527;52.414;13.226;2023-01-30T16:16:51;4.80;99.90
64209;DHT22;50527;52.414;13.226;2023-01-30T16:19:22;4.90;99.90
64209;DHT22;50527;52.414;13.226;2023-01-30T16:21:51;4.90;99.90
64209;DHT22;50527;52.414;13.226;2023-01-30T16:24:19;4.90;99.90
64209;DHT22;50527;52.414;13.226;2023-01-30T16:26:47;4.90;99.90
64209;DHT22;50527;52.414;13.226;2023-01-30T16:29:19;4.90;99.90
64209;DHT22;50527;52.414;13.226;2023-01-30T16:31:46;4.90;99.90
64209;DHT22;50527;52.414;13.226;2023-01-30T16:34:28;4.90;99.90
64209;DHT22;50527;52.414;13.226;2023-01-30T16:36:54;5.00;99.90
64209;DHT22;50527;52.414;13.226;2023-01-30T16:39:32;5.00;99.90
64209;DHT22;50527;52.414;13.226;2023-01-30T16:42:00;5.00;99.90
64209;DHT22;50527;52.414;13.226;2023-01-30T16:44:27;5.00;99.90
64209;DHT22;50527;52.414;13.226;2023-01-30T16:47:03;5.00;99.90
64209;DHT22;50527;52.414;13.226;2023-01-30T16:52:10;5.00;99.90
64209;DHT22;50527;52.414;13.226;2023-01-30T16:54:39;5.00;99.90
64209;DHT22;50527;52.414;13.226;2023-01-30T16:57:25;5.00;99.90
64209;DHT22;50527;52.414;13.226;2023-01-30T16:59:56;5.00;99.90
64209;DHT22;50527;52.414;13.226;2023-01-30T17:02:33;5.00;99.90
64209;DHT22;50527;52.414;13.226;2023-01-30T17:05:27;5.10;99.90
64209;DHT22;50527;52.414;13.226;2023-01-30T17:07:54;5.10;99.90
64209;DHT22;50527;52.414;13.226;2023-01-30T17:13:32;5.10;99.90
64209;DHT22;50527;52.414;13.226;2023-01-30T17:18:47;5.00;99.90
64209;DHT22;50527;52.414;13.226;2023-01-30T17:21:13;5.00;99.90
64209;DHT22;50527;52.414;13.226;2023-01-30T17:23:42;5.00;99.90